Time;durP1;ratioP1;P1;durP2;ratioP2;P2;SDS_P1;SDS_P2;PMS_P1;PMS_P2;Temp;Humidity;BMP_temperature;BMP_pressure;BME280_temperature;BME280_humidity;BME280_pressure;Samples;Min_cycle;Max_cycle;Signal;HPM_P1;HPM_P2
2022/03/19 00:01:43;;;;;;;55.70;32.67;;;9.50;99.90;;;;;;5055236;28;20286;-74
2022/03/19 00:04:09;;;;;;;50.80;31.83;;;9.40;99.90;;;;;;5059653;28;20191;-74
2022/03/19 00:06:39;;;;;;;48.97;30.87;;;9.40;99.90;;;;;;5055951;28;20175;-75
2022/03/19 00:09:09;;;;;;;48.23;31.23;;;9.40;99.90;;;;;;5056113;28;20258;-74
2022/03/19 00:11:40;;;;;;;62.80;33.37;;;9.50;99.90;;;;;;5057717;28;20473;-74
2022/03/19 00:14:06;;;;;;;55.93;32.73;;;9.50;99.90;;;;;;5057163;28;20446;-75
2022/03/19 00:16:32;;;;;;;46.27;31.00;;;9.40;99.90;;;;;;5059559;28;21099;-75
2022/03/19 00:18:58;;;;;;;58.73;32.07;;;9.30;99.90;;;;;;5056977;28;20448;-76
2022/03/19 00:21:24;;;;;;;54.40;33.53;;;9.30;99.90;;;;;;5037743;28;20450;-75
2022/03/19 00:23:49;;;;;;;50.73;31.70;;;9.40;99.90;;;;;;5056223;28;20217;-75
2022/03/19 00:26:16;;;;;;;51.20;29.60;;;9.40;99.90;;;;;;5059789;28;20434;-74
2022/03/19 00:28:42;;;;;;;53.07;33.13;;;9.30;99.90;;;;;;5046239;28;20184;-74
2022/03/19 00:31:08;;;;;;;51.40;29.53;;;9.40;99.90;;;;;;5063834;28;20931;-74
2022/03/19 00:33:34;;;;;;;51.03;31.63;;;9.40;99.90;;;;;;5057951;28;20452;-74
2022/03/19 00:36:00;;;;;;;56.40;31.80;;;9.50;99.90;;;;;;5060149;28;20449;-75
2022/03/19 00:38:26;;;;;;;52.73;30.90;;;9.40;99.90;;;;;;5056931;28;20437;-75
2022/03/19 00:40:52;;;;;;;54.07;31.03;;;9.30;99.90;;;;;;5057576;28;20469;-75
2022/03/19 00:43:21;;;;;;;55.20;30.50;;;9.40;99.90;;;;;;5060140;28;20207;-75
2022/03/19 00:45:48;;;;;;;45.40;29.20;;;9.50;99.90;;;;;;5060658;28;20478;-75
2022/03/19 00:48:15;;;;;;;55.83;30.90;;;9.50;99.90;;;;;;5060389;28;20435;-75
2022/03/19 00:50:40;;;;;;;51.23;31.00;;;9.50;99.90;;;;;;5054323;28;20450;-75
2022/03/19 00:53:06;;;;;;;50.73;31.97;;;9.40;99.90;;;;;;5060856;28;20516;-75
2022/03/19 00:55:32;;;;;;;55.30;30.87;;;9.40;99.90;;;;;;5059359;28;20184;-75
2022/03/19 00:57:58;;;;;;;52.60;30.93;;;9.30;99.90;;;;;;5058484;28;20649;-75
2022/03/19 01:00:25;;;;;;;47.23;31.47;;;9.30;99.90;;;;;;5044121;28;20457;-75
2022/03/19 01:02:51;;;;;;;57.67;31.60;;;9.20;99.90;;;;;;5059442;28;20204;-74
2022/03/19 01:05:17;;;;;;;44.50;28.43;;;9.10;99.90;;;;;;5058731;28;20528;-75
2022/03/19 01:07:50;;;;;;;43.90;29.13;;;9.20;99.90;;;;;;5058253;28;20595;-75
2022/03/19 01:10:20;;;;;;;52.17;30.10;;;9.20;99.90;;;;;;5060796;28;20190;-75
2022/03/19 01:12:47;;;;;;;51.40;28.40;;;9.10;99.90;;;;;;5059215;28;20469;-75
2022/03/19 01:15:14;;;;;;;53.80;30.10;;;9.20;99.90;;;;;;5060021;28;20927;-76
2022/03/19 01:17:40;;;;;;;47.63;29.20;;;9.20;99.90;;;;;;5059299;28;20440;-75
2022/03/19 01:20:07;;;;;;;51.20;30.07;;;9.30;99.90;;;;;;5057852;28;20465;-75
2022/03/19 01:22:33;;;;;;;51.27;29.43;;;9.30;99.90;;;;;;5054235;28;20198;-75
2022/03/19 01:25:04;;;;;;;51.73;28.87;;;9.30;99.90;;;;;;5061176;28;20434;-75
2022/03/19 01:27:35;;;;;;;49.80;29.97;;;9.30;99.90;;;;;;5058178;28;20504;-75
2022/03/19 01:30:01;;;;;;;48.97;29.30;;;9.20;99.90;;;;;;5060607;28;20437;-75
2022/03/19 01:32:27;;;;;;;51.97;30.10;;;9.10;99.90;;;;;;5043260;28;20470;-74
2022/03/19 01:34:53;;;;;;;53.63;29.27;;;9.10;99.90;;;;;;5056455;28;20562;-74
2022/03/19 01:37:20;;;;;;;47.70;29.53;;;9.10;99.90;;;;;;5057232;28;20441;-74
2022/03/19 01:39:46;;;;;;;46.53;29.30;;;9.10;99.90;;;;;;5057737;28;21255;-74
2022/03/19 01:42:11;;;;;;;50.67;30.03;;;9.10;99.90;;;;;;5058494;28;20452;-74
2022/03/19 01:44:37;;;;;;;48.77;28.73;;;9.10;99.90;;;;;;5058700;28;20235;-75
2022/03/19 01:47:10;;;;;;;45.03;29.83;;;9.10;99.90;;;;;;5059614;28;20184;-74
2022/03/19 01:49:36;;;;;;;49.57;29.47;;;9.10;99.90;;;;;;5056568;28;20205;-75
2022/03/19 01:52:03;;;;;;;50.27;28.80;;;9.00;99.90;;;;;;5059711;28;20576;-74
2022/03/19 01:54:31;;;;;;;50.83;28.80;;;9.10;99.90;;;;;;5060073;28;20469;-74
2022/03/19 01:56:58;;;;;;;45.17;29.27;;;9.10;99.90;;;;;;5058028;28;20449;-74
2022/03/19 01:59:27;;;;;;;47.90;28.40;;;9.00;99.90;;;;;;5040975;28;20462;-74
2022/03/19 02:01:53;;;;;;;46.37;28.30;;;9.00;99.90;;;;;;5041213;28;20461;-74
2022/03/19 02:04:21;;;;;;;43.83;28.30;;;9.10;99.90;;;;;;5057097;28;20492;-73
2022/03/19 02:06:47;;;;;;;49.67;31.47;;;9.10;99.90;;;;;;5057379;28;20426;-75
2022/03/19 02:09:13;;;;;;;43.53;28.27;;;9.00;99.90;;;;;;5058142;28;20489;-75
2022/03/19 02:11:39;;;;;;;46.00;26.90;;;9.10;99.90;;;;;;5057849;28;20440;-75
2022/03/19 02:14:04;;;;;;;47.17;28.53;;;9.10;99.90;;;;;;5058520;28;20472;-75
2022/03/19 02:16:30;;;;;;;41.40;27.20;;;9.10;99.90;;;;;;5057582;28;20233;-74
2022/03/19 02:18:57;;;;;;;47.50;29.47;;;9.10;99.90;;;;;;5057453;28;20546;-75
2022/03/19 02:21:23;;;;;;;42.13;25.77;;;8.80;99.90;;;;;;5043557;28;20905;-75
2022/03/19 02:26:44;;;;;;;44.80;27.60;;;8.70;99.90;;;;;;5061512;28;20230;-74
2022/03/19 02:29:10;;;;;;;49.47;27.30;;;8.80;99.90;;;;;;5041214;28;20435;-75
2022/03/19 02:31:40;;;;;;;42.07;26.80;;;8.80;99.90;;;;;;5056092;28;20441;-75
2022/03/19 02:34:08;;;;;;;47.87;29.00;;;8.90;99.90;;;;;;5055323;28;20445;-75
2022/03/19 02:36:35;;;;;;;44.50;26.07;;;8.90;99.90;;;;;;5054849;28;20434;-75
2022/03/19 02:39:18;;;;;;;49.97;28.77;;;8.90;99.90;;;;;;5056708;28;20441;-74
2022/03/19 02:41:53;;;;;;;42.83;26.83;;;9.00;99.90;;;;;;5058594;28;20523;-73
2022/03/19 02:44:19;;;;;;;45.77;27.13;;;8.80;99.90;;;;;;5044471;28;20885;-73
2022/03/19 02:46:48;;;;;;;43.77;26.80;;;8.80;99.90;;;;;;5054450;28;20445;-74
2022/03/19 02:49:18;;;;;;;44.23;26.20;;;8.80;99.90;;;;;;5060953;28;20953;-74
2022/03/19 02:51:46;;;;;;;43.13;27.67;;;8.80;99.90;;;;;;5057524;28;20499;-74
2022/03/19 02:54:17;;;;;;;43.07;26.80;;;8.90;99.90;;;;;;5055131;28;20840;-74
2022/03/19 02:56:44;;;;;;;43.73;25.50;;;8.90;99.90;;;;;;5056392;28;20445;-74
2022/03/19 02:59:19;;;;;;;40.57;25.80;;;8.90;99.90;;;;;;5057780;28;20445;-74
2022/03/19 03:01:46;;;;;;;45.50;25.67;;;8.80;99.90;;;;;;5059755;28;20468;-75
2022/03/19 03:04:12;;;;;;;47.10;24.60;;;8.80;99.90;;;;;;5055229;28;20982;-74
2022/03/19 03:06:40;;;;;;;47.70;26.93;;;8.80;99.90;;;;;;5040098;28;20436;-74
2022/03/19 03:09:06;;;;;;;47.40;26.20;;;8.80;99.90;;;;;;5059177;28;20478;-75
2022/03/19 03:11:32;;;;;;;41.33;25.90;;;8.70;99.90;;;;;;5054806;28;20895;-74
2022/03/19 03:13:59;;;;;;;40.80;24.67;;;8.60;99.90;;;;;;5037141;28;20987;-74
2022/03/19 03:16:28;;;;;;;42.63;25.17;;;8.60;99.90;;;;;;5054457;28;20995;-75
2022/03/19 03:19:04;;;;;;;39.97;24.20;;;8.70;99.90;;;;;;5056837;28;20515;-74
2022/03/19 03:21:29;;;;;;;42.73;26.40;;;8.70;99.90;;;;;;5059012;28;20555;-75
2022/03/19 03:23:56;;;;;;;43.33;25.53;;;8.70;99.90;;;;;;5058616;28;20553;-74
2022/03/19 03:26:23;;;;;;;41.10;24.40;;;8.70;99.90;;;;;;5052698;28;20188;-74
2022/03/19 03:28:49;;;;;;;43.97;24.30;;;8.60;99.90;;;;;;5057752;28;20887;-74
2022/03/19 03:31:14;;;;;;;42.03;25.63;;;8.70;99.90;;;;;;5057646;28;20502;-74
2022/03/19 03:33:40;;;;;;;42.17;26.43;;;8.70;99.90;;;;;;5049474;28;20221;-74
2022/03/19 03:36:06;;;;;;;46.87;24.90;;;8.60;99.90;;;;;;5056226;28;20210;-74
2022/03/19 03:38:32;;;;;;;42.70;24.83;;;8.50;99.90;;;;;;5056462;28;20437;-75
2022/03/19 03:40:58;;;;;;;43.13;26.30;;;8.50;99.90;;;;;;5054413;28;20514;-75
2022/03/19 03:43:24;;;;;;;40.10;26.10;;;8.50;99.90;;;;;;5055531;28;20207;-75
2022/03/19 03:45:50;;;;;;;42.13;24.60;;;8.50;99.90;;;;;;5055640;28;20285;-76
2022/03/19 03:48:16;;;;;;;42.47;25.10;;;8.50;99.90;;;;;;5053629;28;20690;-75
2022/03/19 03:50:42;;;;;;;40.43;24.90;;;8.50;99.90;;;;;;5058582;28;20437;-76
2022/03/19 03:53:08;;;;;;;49.43;26.90;;;8.50;99.90;;;;;;5051504;28;20941;-75
2022/03/19 03:55:36;;;;;;;46.53;27.60;;;8.50;99.90;;;;;;5036821;28;20188;-75
2022/03/19 03:58:04;;;;;;;46.00;26.67;;;8.40;99.90;;;;;;5056266;28;20525;-75
2022/03/19 04:00:33;;;;;;;41.33;27.37;;;8.40;99.90;;;;;;5056130;28;20504;-75
2022/03/19 04:02:59;;;;;;;47.57;27.30;;;8.40;99.90;;;;;;5055047;28;20476;-75
2022/03/19 04:05:27;;;;;;;46.00;26.50;;;8.30;99.90;;;;;;5061590;28;20914;-75
2022/03/19 04:07:54;;;;;;;40.10;25.33;;;8.30;99.90;;;;;;5058559;28;20244;-75
2022/03/19 04:10:20;;;;;;;44.47;26.20;;;8.30;99.90;;;;;;5058819;28;20448;-75
2022/03/19 04:12:45;;;;;;;44.50;24.90;;;8.30;99.90;;;;;;5057817;28;20515;-74
2022/03/19 04:15:11;;;;;;;38.80;24.73;;;8.30;99.90;;;;;;5055836;28;20260;-75
2022/03/19 04:17:37;;;;;;;48.33;28.17;;;8.30;99.90;;;;;;5062259;28;20198;-74
2022/03/19 04:20:05;;;;;;;47.83;25.73;;;8.30;99.90;;;;;;5059600;28;20244;-74
2022/03/19 04:22:42;;;;;;;42.70;26.77;;;8.30;99.90;;;;;;5056808;28;20528;-74
2022/03/19 04:25:13;;;;;;;45.70;24.77;;;8.30;99.90;;;;;;5058493;28;20440;-74
2022/03/19 04:27:40;;;;;;;51.43;27.10;;;8.30;99.90;;;;;;5058219;28;20457;-75
2022/03/19 04:30:07;;;;;;;45.20;26.27;;;8.30;99.90;;;;;;5058749;28;20466;-74
2022/03/19 04:32:40;;;;;;;41.93;23.60;;;8.10;99.90;;;;;;5059104;28;20437;-74
2022/03/19 04:36:29;;;;;;;44.57;24.47;;;8.20;99.90;;;;;;5060105;28;20445;-74
2022/03/19 04:37:51;;;;;;;47.13;27.60;;;8.20;99.90;;;;;;5057310;28;20445;-74
2022/03/19 04:40:17;;;;;;;43.30;26.33;;;8.10;99.90;;;;;;5056491;28;20944;-74
2022/03/19 04:42:43;;;;;;;43.83;25.27;;;8.10;99.90;;;;;;5055536;28;20685;-73
2022/03/19 04:45:08;;;;;;;42.67;25.03;;;8.10;99.90;;;;;;5057772;28;20567;-74
2022/03/19 04:47:34;;;;;;;40.30;25.00;;;8.10;99.90;;;;;;5038957;28;20184;-73
2022/03/19 04:50:04;;;;;;;46.67;25.40;;;8.20;99.90;;;;;;5054301;28;20183;-74
2022/03/19 04:52:30;;;;;;;41.53;25.60;;;8.10;99.90;;;;;;5056217;28;20188;-74
2022/03/19 04:55:00;;;;;;;44.13;25.60;;;8.10;99.90;;;;;;5062242;28;20518;-73
2022/03/19 04:57:35;;;;;;;48.30;24.53;;;8.20;99.90;;;;;;5056703;28;20437;-74
2022/03/19 05:00:00;;;;;;;43.40;25.07;;;8.20;99.90;;;;;;5057545;28;20464;-74
2022/03/19 05:02:26;;;;;;;43.90;26.13;;;8.20;99.90;;;;;;5036864;28;20433;-74
2022/03/19 05:04:52;;;;;;;40.97;25.37;;;8.20;99.90;;;;;;5040908;28;20187;-73
2022/03/19 05:07:21;;;;;;;47.37;25.50;;;8.20;99.90;;;;;;5059031;28;20194;-74
2022/03/19 05:12:39;;;;;;;39.73;25.53;;;8.20;99.90;;;;;;5060071;28;20533;-74
2022/03/19 05:15:06;;;;;;;48.90;25.27;;;8.20;99.90;;;;;;5058646;28;20510;-74
2022/03/19 05:17:32;;;;;;;43.60;24.83;;;8.30;99.90;;;;;;5057571;28;20473;-74
2022/03/19 05:19:58;;;;;;;41.67;26.07;;;8.30;99.90;;;;;;5056740;28;20499;-73
2022/03/19 05:22:23;;;;;;;40.60;25.47;;;8.30;99.90;;;;;;5046231;28;20434;-74
2022/03/19 05:24:49;;;;;;;42.67;25.47;;;8.10;99.90;;;;;;5056372;28;20203;-74
2022/03/19 05:27:15;;;;;;;50.90;26.63;;;8.10;99.90;;;;;;5061046;28;20856;-74
2022/03/19 05:29:40;;;;;;;46.43;26.33;;;8.10;99.90;;;;;;5056911;28;20179;-74
2022/03/19 05:32:08;;;;;;;39.70;23.97;;;8.10;99.90;;;;;;5061621;28;20817;-74
2022/03/19 05:34:34;;;;;;;41.43;26.60;;;8.10;99.90;;;;;;5060227;28;20256;-75
2022/03/19 05:37:04;;;;;;;50.07;27.30;;;8.10;99.90;;;;;;5044462;28;20502;-75
2022/03/19 05:39:31;;;;;;;45.47;26.33;;;8.10;99.90;;;;;;5057298;28;20434;-74
2022/03/19 05:41:57;;;;;;;44.37;25.23;;;8.10;99.90;;;;;;5056228;28;21314;-74
2022/03/19 05:44:28;;;;;;;39.50;25.33;;;8.10;99.90;;;;;;5058982;28;20449;-74
2022/03/19 05:46:54;;;;;;;39.57;25.00;;;8.20;99.90;;;;;;5056655;28;20515;-74
2022/03/19 05:49:20;;;;;;;44.53;26.50;;;8.10;99.90;;;;;;5058368;28;20919;-75
2022/03/19 05:51:45;;;;;;;43.97;26.77;;;8.10;99.90;;;;;;5051338;28;20441;-74
2022/03/19 05:54:11;;;;;;;43.53;26.30;;;8.10;99.90;;;;;;5054398;28;20207;-75
2022/03/19 05:56:37;;;;;;;45.23;25.43;;;8.20;99.90;;;;;;5056988;28;20213;-74
2022/03/19 05:59:06;;;;;;;46.50;27.97;;;8.00;99.90;;;;;;5056506;28;20215;-74
2022/03/19 06:01:32;;;;;;;48.33;26.73;;;8.00;99.90;;;;;;5038168;28;20842;-75
2022/03/19 06:03:59;;;;;;;44.10;26.20;;;8.10;99.90;;;;;;5055353;28;20461;-75
2022/03/19 06:06:25;;;;;;;49.10;28.77;;;8.10;99.90;;;;;;5055952;28;20519;-75
2022/03/19 06:08:51;;;;;;;46.00;26.63;;;8.00;99.90;;;;;;5056367;28;20430;-75
2022/03/19 06:11:17;;;;;;;48.87;28.70;;;7.90;99.90;;;;;;5053412;28;21775;-74
2022/03/19 06:13:43;;;;;;;41.13;27.20;;;8.00;99.90;;;;;;5042143;28;20458;-75
2022/03/19 06:16:09;;;;;;;47.17;27.87;;;8.00;99.90;;;;;;5054259;28;20341;-74
2022/03/19 06:18:35;;;;;;;42.00;26.73;;;7.90;99.90;;;;;;5058560;28;20251;-74
2022/03/19 06:21:01;;;;;;;45.23;25.90;;;8.00;99.90;;;;;;5053948;28;21184;-75
2022/03/19 06:23:27;;;;;;;43.47;26.37;;;8.10;99.90;;;;;;5051832;28;20216;-75
2022/03/19 06:25:53;;;;;;;42.70;24.80;;;8.10;99.90;;;;;;5056659;28;20496;-75
2022/03/19 06:28:19;;;;;;;39.70;24.77;;;8.20;99.90;;;;;;5054671;28;20314;-75
2022/03/19 06:30:45;;;;;;;49.63;27.10;;;8.20;99.90;;;;;;5055295;28;20775;-74
2022/03/19 06:33:12;;;;;;;39.00;24.53;;;8.20;99.90;;;;;;5054094;28;20514;-74
2022/03/19 06:38:24;;;;;;;38.13;24.43;;;8.20;99.90;;;;;;5055121;28;20455;-75
2022/03/19 06:40:50;;;;;;;39.43;24.77;;;8.20;99.90;;;;;;5056130;28;20469;-74
2022/03/19 06:43:16;;;;;;;40.23;22.63;;;8.20;99.90;;;;;;5052954;28;20989;-75
2022/03/19 06:45:42;;;;;;;41.87;25.57;;;8.20;99.90;;;;;;5056164;28;20787;-74
2022/03/19 06:48:07;;;;;;;36.23;23.93;;;8.20;99.90;;;;;;5054367;28;20714;-74
2022/03/19 06:50:33;;;;;;;47.87;25.87;;;8.20;99.90;;;;;;5054792;28;20668;-75
2022/03/19 06:52:59;;;;;;;45.03;25.47;;;8.30;99.90;;;;;;5056649;28;20223;-74
2022/03/19 06:55:24;;;;;;;43.80;25.70;;;8.20;99.90;;;;;;5042252;28;20179;-74
2022/03/19 06:57:50;;;;;;;39.43;25.37;;;8.20;99.90;;;;;;5054989;28;20194;-74
2022/03/19 07:00:16;;;;;;;40.50;25.07;;;8.20;99.90;;;;;;5054802;28;20221;-74
2022/03/19 07:02:53;;;;;;;42.10;24.67;;;8.20;99.90;;;;;;5055468;28;20230;-74
2022/03/19 07:05:28;;;;;;;42.07;25.20;;;8.20;99.90;;;;;;5053433;28;20432;-74
2022/03/19 07:07:56;;;;;;;46.87;26.77;;;8.30;99.90;;;;;;5055791;28;20575;-74
2022/03/19 07:10:21;;;;;;;49.70;26.40;;;8.30;99.90;;;;;;5053428;28;20437;-74
2022/03/19 07:12:52;;;;;;;39.67;25.20;;;8.20;99.90;;;;;;5053681;28;20530;-74
2022/03/19 07:15:20;;;;;;;49.43;26.47;;;8.20;99.90;;;;;;5054500;28;21099;-73
2022/03/19 07:17:48;;;;;;;46.23;25.47;;;8.30;99.90;;;;;;5054039;28;20985;-73
2022/03/19 07:20:14;;;;;;;37.70;23.43;;;8.30;99.90;;;;;;5053829;28;20504;-74
2022/03/19 07:22:48;;;;;;;39.40;25.10;;;8.40;99.90;;;;;;5055215;28;20437;-72
2022/03/19 07:25:14;;;;;;;42.37;24.73;;;8.40;99.90;;;;;;5038324;28;20433;-74
2022/03/19 07:27:40;;;;;;;42.30;25.17;;;8.30;99.90;;;;;;5053923;28;20441;-74
2022/03/19 07:30:06;;;;;;;44.10;25.27;;;8.30;99.90;;;;;;5051125;28;20480;-74
2022/03/19 07:32:32;;;;;;;54.60;34.90;;;8.30;99.90;;;;;;5056879;28;20270;-74
2022/03/19 07:34:59;;;;;;;43.90;24.57;;;8.40;99.90;;;;;;5056714;28;21393;-73
2022/03/19 07:37:25;;;;;;;50.10;29.23;;;8.40;99.90;;;;;;5035492;28;20211;-73
2022/03/19 07:39:50;;;;;;;39.60;26.03;;;8.50;99.90;;;;;;5052476;28;20551;-74
2022/03/19 07:42:16;;;;;;;42.50;27.27;;;8.70;99.90;;;;;;5056636;28;20219;-74
2022/03/19 07:44:41;;;;;;;35.10;23.63;;;8.70;99.90;;;;;;5056577;28;20692;-73
2022/03/19 07:47:07;;;;;;;39.57;24.60;;;8.70;99.90;;;;;;5032426;28;20199;-74
2022/03/19 07:49:33;;;;;;;39.70;22.27;;;8.80;99.90;;;;;;5050600;28;20269;-74
2022/03/19 07:51:58;;;;;;;42.20;22.67;;;8.80;99.90;;;;;;5054717;28;20182;-74
2022/03/19 07:54:27;;;;;;;36.33;23.87;;;9.00;99.90;;;;;;5038824;28;20237;-75
2022/03/19 07:56:53;;;;;;;39.90;23.87;;;9.00;99.90;;;;;;5055354;28;20608;-75
2022/03/19 07:59:20;;;;;;;36.80;22.00;;;9.00;99.90;;;;;;5050169;28;20437;-75
2022/03/19 08:01:48;;;;;;;39.57;22.73;;;9.10;99.90;;;;;;5047721;28;20812;-75
2022/03/19 08:04:15;;;;;;;32.80;22.43;;;9.10;99.90;;;;;;5048564;28;20529;-76
2022/03/19 08:06:40;;;;;;;41.37;22.00;;;9.20;99.90;;;;;;5036095;28;20508;-76
2022/03/19 08:09:08;;;;;;;30.47;19.70;;;9.20;99.90;;;;;;5039905;28;21050;-76
2022/03/19 08:11:34;;;;;;;35.10;21.90;;;9.20;99.90;;;;;;5053219;28;20211;-75
2022/03/19 08:14:00;;;;;;;34.83;21.47;;;9.20;99.90;;;;;;5053485;28;20457;-75
2022/03/19 08:16:25;;;;;;;34.03;21.30;;;9.30;99.90;;;;;;5042056;28;20441;-74
2022/03/19 08:18:51;;;;;;;35.17;20.30;;;9.30;99.90;;;;;;5052390;28;20453;-76
2022/03/19 08:21:17;;;;;;;32.73;20.13;;;9.40;99.90;;;;;;5053507;28;20235;-75
2022/03/19 08:23:42;;;;;;;28.43;19.57;;;9.40;99.90;;;;;;5056188;28;20672;-75
2022/03/19 08:26:08;;;;;;;29.73;21.00;;;9.30;99.90;;;;;;5055601;28;20184;-74
2022/03/19 08:28:34;;;;;;;45.30;23.83;;;9.40;99.90;;;;;;5034417;28;20268;-75
2022/03/19 08:30:59;;;;;;;32.07;20.53;;;9.50;99.90;;;;;;5053519;28;20594;-76
2022/03/19 08:33:26;;;;;;;32.10;21.23;;;9.60;99.90;;;;;;5052915;28;20207;-76
2022/03/19 08:35:51;;;;;;;40.60;21.07;;;9.70;99.90;;;;;;5053654;28;20215;-76
2022/03/19 08:41:01;;;;;;;36.30;23.40;;;9.70;99.90;;;;;;5052218;28;20765;-76
2022/03/19 08:43:27;;;;;;;33.23;21.60;;;9.70;99.90;;;;;;5055304;28;20511;-75
2022/03/19 08:45:52;;;;;;;39.00;23.93;;;9.70;99.90;;;;;;5053907;28;20696;-75
2022/03/19 08:48:18;;;;;;;33.73;22.50;;;9.70;99.90;;;;;;5052757;28;20267;-75
2022/03/19 08:50:45;;;;;;;33.97;22.47;;;9.80;99.90;;;;;;5057977;28;20183;-75
2022/03/19 08:53:11;;;;;;;34.77;21.53;;;9.80;99.90;;;;;;5057771;28;20225;-75
2022/03/19 08:55:37;;;;;;;30.50;21.73;;;9.80;99.90;;;;;;5057516;28;20445;-76
2022/03/19 08:58:03;;;;;;;34.87;23.37;;;9.90;99.90;;;;;;5057279;28;20452;-75
2022/03/19 09:00:28;;;;;;;31.37;21.87;;;10.00;99.90;;;;;;5036151;28;20742;-75
2022/03/19 09:02:55;;;;;;;34.03;22.80;;;10.00;99.90;;;;;;5055118;28;20278;-76
2022/03/19 09:05:22;;;;;;;37.27;24.30;;;10.10;99.90;;;;;;5056466;28;20256;-75
2022/03/19 09:07:47;;;;;;;34.13;22.73;;;10.10;99.90;;;;;;5059192;28;20422;-75
2022/03/19 09:10:13;;;;;;;34.00;22.30;;;10.20;99.90;;;;;;5039515;28;20475;-75
2022/03/19 09:12:39;;;;;;;37.27;22.93;;;10.20;99.90;;;;;;5041058;28;20183;-75
2022/03/19 09:15:06;;;;;;;30.27;21.67;;;10.20;99.90;;;;;;5056734;28;20207;-74
2022/03/19 09:17:32;;;;;;;33.70;23.30;;;10.30;99.90;;;;;;5059143;28;20516;-74
2022/03/19 09:19:58;;;;;;;39.23;23.10;;;10.30;99.90;;;;;;5055940;28;20528;-74
2022/03/19 09:22:23;;;;;;;32.90;23.27;;;10.30;99.90;;;;;;5056252;28;20187;-73
2022/03/19 09:24:49;;;;;;;37.67;22.33;;;10.40;99.90;;;;;;5056609;28;20684;-73
2022/03/19 09:27:15;;;;;;;37.60;25.03;;;10.30;99.90;;;;;;5056658;28;20191;-73
2022/03/19 09:29:42;;;;;;;34.10;23.33;;;10.30;99.90;;;;;;5055034;28;20186;-73
2022/03/19 09:32:09;;;;;;;42.93;25.00;;;10.50;99.90;;;;;;5050908;28;20274;-73
2022/03/19 09:34:36;;;;;;;37.17;22.93;;;10.60;99.90;;;;;;5054916;28;20465;-74
2022/03/19 09:37:01;;;;;;;36.97;23.40;;;10.70;99.90;;;;;;5059154;28;20942;-73
2022/03/19 09:39:27;;;;;;;36.80;22.90;;;10.70;99.90;;;;;;5060413;28;20450;-73
2022/03/19 09:41:54;;;;;;;36.40;23.67;;;10.80;99.90;;;;;;5055888;28;20461;-73
2022/03/19 09:44:25;;;;;;;36.43;23.13;;;10.90;99.90;;;;;;5055170;28;20887;-73
2022/03/19 09:46:51;;;;;;;39.90;25.60;;;10.80;99.90;;;;;;5056820;28;20445;-73
2022/03/19 09:49:16;;;;;;;37.07;25.10;;;10.90;99.90;;;;;;5059371;28;20425;-73
2022/03/19 09:51:51;;;;;;;37.20;25.03;;;10.90;99.90;;;;;;5057239;28;20500;-73
2022/03/19 09:54:17;;;;;;;43.80;24.77;;;10.90;99.90;;;;;;5060127;28;20229;-75
2022/03/19 09:56:43;;;;;;;39.67;25.17;;;10.90;99.90;;;;;;5060336;28;20430;-73
2022/03/19 09:59:09;;;;;;;42.57;27.00;;;10.90;99.90;;;;;;5054771;28;20285;-74
2022/03/19 10:01:38;;;;;;;36.77;24.97;;;11.00;99.90;;;;;;5059223;28;20470;-75
2022/03/19 10:04:07;;;;;;;40.30;26.80;;;11.00;99.90;;;;;;5038505;28;20210;-73
2022/03/19 10:09:20;;;;;;;39.10;25.77;;;11.00;99.90;;;;;;5058455;28;20455;-73
2022/03/19 10:11:51;;;;;;;35.50;26.10;;;11.10;99.90;;;;;;5056540;28;20442;-74
2022/03/19 10:14:22;;;;;;;38.53;25.70;;;11.20;99.90;;;;;;5057113;28;20534;-73
2022/03/19 10:16:51;;;;;;;39.23;26.33;;;11.30;99.90;;;;;;5057319;28;20809;-74
2022/03/19 10:19:28;;;;;;;41.53;29.83;;;11.40;99.90;;;;;;5053567;28;20446;-73
2022/03/19 10:22:04;;;;;;;37.53;26.23;;;11.40;99.90;;;;;;5057936;28;20490;-74
2022/03/19 10:24:29;;;;;;;38.27;27.30;;;11.50;99.90;;;;;;5055801;28;20473;-73
2022/03/19 10:26:55;;;;;;;38.80;26.63;;;11.60;99.90;;;;;;5054818;28;20961;-74
2022/03/19 10:29:30;;;;;;;40.97;27.70;;;11.70;99.90;;;;;;5053893;28;20190;-74
2022/03/19 10:32:00;;;;;;;46.70;28.20;;;11.70;99.90;;;;;;5056954;28;20755;-74
2022/03/19 10:34:26;;;;;;;46.00;28.90;;;11.80;99.90;;;;;;5049978;28;21544;-73
2022/03/19 10:36:51;;;;;;;45.07;29.83;;;11.80;99.90;;;;;;5037527;28;20529;-74
2022/03/19 10:39:26;;;;;;;42.17;27.77;;;11.80;99.90;;;;;;5059722;28;20206;-74
2022/03/19 10:41:54;;;;;;;40.20;29.13;;;11.90;99.90;;;;;;5055438;28;20222;-74
2022/03/19 10:44:27;;;;;;;43.80;29.60;;;11.90;99.90;;;;;;5056510;28;20467;-74
2022/03/19 10:46:55;;;;;;;45.30;28.30;;;12.00;99.90;;;;;;5050170;28;20443;-74
2022/03/19 10:49:23;;;;;;;43.83;28.57;;;12.10;99.90;;;;;;5053980;28;21002;-74
2022/03/19 10:51:52;;;;;;;41.53;27.80;;;12.10;99.90;;;;;;5051501;28;20456;-74
2022/03/19 10:54:18;;;;;;;44.67;28.97;;;12.20;99.90;;;;;;5054703;28;20457;-74
2022/03/19 10:56:46;;;;;;;42.50;28.80;;;12.20;99.90;;;;;;5055663;28;20442;-73
2022/03/19 10:59:11;;;;;;;39.50;28.50;;;12.30;99.90;;;;;;5038539;28;21011;-74
2022/03/19 11:01:38;;;;;;;43.53;28.60;;;12.30;99.90;;;;;;5054430;28;20474;-74
2022/03/19 11:04:06;;;;;;;38.60;27.67;;;12.40;99.90;;;;;;5054054;28;20457;-74
2022/03/19 11:06:39;;;;;;;39.77;28.13;;;12.50;99.90;;;;;;5049338;28;21309;-73
2022/03/19 11:09:09;;;;;;;40.93;28.17;;;12.60;99.90;;;;;;5055738;28;20427;-74
2022/03/19 11:11:48;;;;;;;47.33;29.07;;;12.60;99.90;;;;;;5052785;28;20969;-74
2022/03/19 11:14:23;;;;;;;38.00;26.80;;;12.70;99.90;;;;;;5054688;28;20455;-72
2022/03/19 11:17:23;;;;;;;39.63;28.43;;;12.80;99.90;;;;;;5055952;28;20444;-73
2022/03/19 11:19:40;;;;;;;38.17;27.47;;;12.80;99.90;;;;;;5050948;28;20871;-72
2022/03/19 11:22:06;;;;;;;36.17;26.23;;;12.80;99.90;;;;;;5049189;28;20466;-72
2022/03/19 11:24:38;;;;;;;38.07;25.23;;;12.80;99.90;;;;;;5050808;28;21091;-73
2022/03/19 11:27:04;;;;;;;35.80;24.80;;;12.80;99.90;;;;;;5037214;28;20438;-73
2022/03/19 11:29:31;;;;;;;36.53;24.50;;;12.80;99.90;;;;;;5050334;28;20426;-74
2022/03/19 11:31:58;;;;;;;36.07;24.20;;;12.90;99.80;;;;;;5056734;28;20968;-73
2022/03/19 11:34:24;;;;;;;34.20;23.00;;;12.90;99.60;;;;;;5045544;28;20599;-74
2022/03/19 11:37:02;;;;;;;31.10;22.03;;;13.00;99.90;;;;;;5056610;28;20527;-73
2022/03/19 11:39:28;;;;;;;31.50;22.13;;;13.10;99.90;;;;;;5053368;28;20218;-74
2022/03/19 11:41:54;;;;;;;31.10;22.00;;;13.30;99.90;;;;;;5051984;28;20494;-74
2022/03/19 11:44:24;;;;;;;31.20;22.57;;;13.40;99.90;;;;;;5050540;28;20207;-74
2022/03/19 11:47:01;;;;;;;21.20;16.30;;;13.50;98.70;;;;;;5054373;28;20436;-74
2022/03/19 11:49:48;;;;;;;29.47;16.93;;;13.60;96.40;;;;;;5053481;28;20429;-74
2022/03/19 11:52:37;;;;;;;18.77;13.20;;;13.70;95.20;;;;;;5055811;28;20954;-73
2022/03/19 11:55:08;;;;;;;19.90;13.10;;;13.70;93.30;;;;;;4996949;28;20504;-75
2022/03/19 11:57:46;;;;;;;19.20;13.63;;;13.80;92.80;;;;;;5051839;28;20446;-74
2022/03/19 12:00:20;;;;;;;21.27;14.00;;;13.90;92.00;;;;;;5055206;28;20499;-74
2022/03/19 12:03:10;;;;;;;16.30;12.53;;;14.00;91.80;;;;;;5035616;28;20465;-75
2022/03/19 12:05:46;;;;;;;17.70;12.10;;;14.30;91.40;;;;;;5042311;28;20473;-74
2022/03/19 12:08:16;;;;;;;18.50;12.87;;;14.50;90.80;;;;;;5052651;28;20471;-74
2022/03/19 12:11:16;;;;;;;18.30;13.17;;;15.20;90.50;;;;;;5052711;28;20956;-74
2022/03/19 12:13:47;;;;;;;20.03;11.80;;;16.00;87.90;;;;;;5032695;28;20867;-74
2022/03/19 12:16:33;;;;;;;14.23;10.40;;;16.50;84.20;;;;;;5053441;28;21152;-74
2022/03/19 12:18:59;;;;;;;13.53;10.30;;;16.30;77.50;;;;;;5047118;28;20444;-74
2022/03/19 12:21:24;;;;;;;18.17;11.40;;;16.20;75.10;;;;;;5052967;28;20476;-76
2022/03/19 12:24:20;;;;;;;12.80;10.57;;;16.50;76.10;;;;;;5059066;28;20221;-76
2022/03/19 12:26:49;;;;;;;13.93;9.90;;;17.10;75.80;;;;;;5056490;28;20187;-77
2022/03/19 12:29:16;;;;;;;14.27;9.80;;;17.90;72.00;;;;;;5056366;28;20434;-75
2022/03/19 12:31:48;;;;;;;13.10;9.23;;;18.30;66.80;;;;;;5055270;28;20441;-74
2022/03/19 12:34:24;;;;;;;12.37;9.53;;;18.80;63.50;;;;;;5060539;28;20453;-75
2022/03/19 12:37:02;;;;;;;13.93;9.57;;;19.30;61.00;;;;;;5049336;28;20440;-75
2022/03/19 12:39:28;;;;;;;9.73;8.00;;;19.70;57.60;;;;;;5054961;28;20452;-74
2022/03/19 12:41:54;;;;;;;11.57;7.90;;;19.90;53.70;;;;;;5058182;28;20559;-75
2022/03/19 12:44:24;;;;;;;12.50;8.57;;;19.80;52.60;;;;;;5044916;28;20541;-75
2022/03/19 12:47:04;;;;;;;13.97;8.63;;;20.10;52.20;;;;;;5056857;28;20286;-75
2022/03/19 12:49:31;;;;;;;11.03;8.83;;;20.60;52.00;;;;;;5057828;28;21352;-75
2022/03/19 12:52:04;;;;;;;14.33;7.90;;;20.90;51.80;;;;;;5053317;28;20532;-75